Terminal Aerodrome Forecast
Issued by NWS

Home | Current Version | Previous Version | Text Only | Print | Product List | Glossary On
Versions: 1 2 3 4 5 6 7 8 9 10 11 12 13 14 15 16
000
FTUS46 KSEW 280500 RRA
TAFHQM
TAF
KHQM 280535Z 2806/2906 27015KT P6SM -RA SCT035 BKN050 BKN070
     FM281000 27009KT P6SM OVC020=

USA.gov is the U.S. government's official web portal to all federal, state and local government web resources and services.